Time;durP1;ratioP1;P1;durP2;ratioP2;P2;SDS_P1;SDS_P2;PMS_P1;PMS_P2;Temp;Humidity;BMP_temperature;BMP_pressure;BME280_temperature;BME280_humidity;BME280_pressure;Samples;Min_cycle;Max_cycle;Signal;HPM_P1;HPM_P2
2023/08/21 00:00:57;;;;;;;;;3.00;2.00;;;;;25.80;40.91;101799.41;5082280;28;45429;-63
2023/08/21 00:03:22;;;;;;;;;1.50;1.00;;;;;25.76;40.57;101805.94;5081815;28;45284;-63
2023/08/21 00:05:47;;;;;;;;;1.50;0.50;;;;;25.72;41.09;101798.16;5080842;27;45407;-63
2023/08/21 00:08:13;;;;;;;;;3.00;1.50;;;;;25.69;40.95;101792.97;5080847;28;45505;-63
2023/08/21 00:10:38;;;;;;;;;1.25;1.25;;;;;25.67;41.25;101794.88;5081771;28;45380;-63
2023/08/21 00:13:05;;;;;;;;;1.00;1.00;;;;;25.64;41.35;101799.47;5081558;28;45226;-63
2023/08/21 00:15:30;;;;;;;;;2.50;1.00;;;;;25.61;40.52;101802.38;5081989;27;45337;-63
2023/08/21 00:17:55;;;;;;;;;4.25;3.25;;;;;25.58;40.77;101802.53;5081773;28;45434;-63
2023/08/21 00:20:21;;;;;;;;;1.75;1.00;;;;;25.52;40.98;101780.53;5081874;28;46758;-63
2023/08/21 00:22:46;;;;;;;;;1.50;1.00;;;;;25.51;40.88;101789.56;5081976;28;45335;-63
2023/08/21 00:25:11;;;;;;;;;2.25;1.50;;;;;25.50;41.35;101785.13;5081569;27;45370;-63
2023/08/21 00:27:37;;;;;;;;;2.00;2.00;;;;;25.47;41.02;101791.56;5082065;28;45492;-63
2023/08/21 00:30:03;;;;;;;;;0.25;0.25;;;;;25.43;40.97;101782.84;5081603;28;45427;-63
2023/08/21 00:32:28;;;;;;;;;1.75;1.00;;;;;25.39;41.48;101781.28;5081753;28;45368;-63
2023/08/21 00:34:53;;;;;;;;;2.75;1.00;;;;;25.38;41.33;101776.84;5081551;27;45570;-65
2023/08/21 00:37:19;;;;;;;;;1.50;0.75;;;;;25.34;41.32;101769.91;5081906;28;45433;-63
2023/08/21 00:39:45;;;;;;;;;1.00;1.00;;;;;25.33;41.31;101775.38;5081482;28;45413;-63
2023/08/21 00:42:10;;;;;;;;;2.75;2.00;;;;;25.29;41.29;101780.06;5081764;28;45268;-63
2023/08/21 00:44:35;;;;;;;;;2.00;1.00;;;;;25.27;40.93;101777.50;5081811;28;45304;-64
2023/08/21 00:47:01;;;;;;;;;2.00;1.00;;;;;25.24;41.57;101777.66;5081322;27;45238;-64
2023/08/21 00:49:27;;;;;;;;;2.25;0.00;;;;;25.21;41.12;101783.22;5081521;28;46095;-64
2023/08/21 00:51:53;;;;;;;;;1.00;1.00;;;;;25.17;41.14;101780.81;5081706;28;45208;-64
2023/08/21 00:54:19;;;;;;;;;2.75;0.50;;;;;25.12;41.59;101779.25;5081480;28;45182;-64
2023/08/21 00:56:45;;;;;;;;;0.25;0.25;;;;;25.10;40.94;101772.25;5079658;28;45406;-64
2023/08/21 00:59:11;;;;;;;;;2.00;1.00;;;;;25.04;41.63;101776.16;5081192;28;45515;-64
2023/08/21 01:01:37;;;;;;;;;1.50;1.50;;;;;25.02;41.70;101772.72;5079763;28;45311;-64
2023/08/21 01:04:03;;;;;;;;;1.00;0.25;;;;;24.97;41.25;101775.66;5081257;28;45471;-64
2023/08/21 01:06:29;;;;;;;;;1.00;1.00;;;;;24.98;41.53;101781.88;5081114;27;45388;-64
2023/08/21 01:08:59;;;;;;;;;1.50;1.50;;;;;24.92;41.24;101783.13;5081021;28;45477;-64
2023/08/21 01:11:35;;;;;;;;;1.00;1.00;;;;;24.90;41.70;101790.41;5079869;28;45883;-64
2023/08/21 01:14:03;;;;;;;;;1.00;1.00;;;;;24.88;41.35;101792.34;5081146;28;45427;-64
2023/08/21 01:16:30;;;;;;;;;4.25;2.00;;;;;24.86;41.87;101793.38;5079217;28;45650;-64
2023/08/21 01:18:57;;;;;;;;;1.00;1.00;;;;;24.78;41.90;101780.38;5079515;28;46677;-64
2023/08/21 01:21:22;;;;;;;;;4.00;2.75;;;;;24.79;41.85;101792.84;5080932;28;45446;-64
2023/08/21 01:23:47;;;;;;;;;1.00;1.00;;;;;24.76;41.43;101790.34;5080762;27;45472;-64
2023/08/21 01:26:13;;;;;;;;;1.75;1.75;;;;;24.74;41.74;101784.19;5079720;27;45687;-64
2023/08/21 01:28:38;;;;;;;;;0.25;0.25;;;;;24.73;41.91;101787.84;5080761;28;46095;-64
2023/08/21 01:31:13;;;;;;;;;3.00;2.25;;;;;24.69;41.60;101794.34;5080917;28;45282;-64
2023/08/21 01:33:47;;;;;;;;;2.50;1.00;;;;;24.67;41.86;101795.28;5080702;28;45297;-64
2023/08/21 01:36:14;;;;;;;;;3.75;1.25;;;;;24.65;42.06;101804.41;5080653;28;45453;-64
2023/08/21 01:38:40;;;;;;;;;1.75;1.00;;;;;24.62;41.70;101801.88;5080543;28;45395;-64
2023/08/21 01:41:06;;;;;;;;;2.75;2.75;;;;;24.61;41.75;101805.50;5079116;28;45307;-64
2023/08/21 01:43:31;;;;;;;;;1.50;1.00;;;;;24.61;42.07;101814.41;5080668;28;45298;-64
2023/08/21 01:45:56;;;;;;;;;2.75;1.50;;;;;24.59;42.20;101816.34;5080781;27;45491;-64
2023/08/21 01:48:22;;;;;;;;;0.25;0.25;;;;;24.57;42.00;101812.88;5079059;28;48115;-64
2023/08/21 01:50:47;;;;;;;;;0.00;0.00;;;;;24.55;41.65;101800.47;5080510;28;45437;-64
2023/08/21 01:53:12;;;;;;;;;1.00;1.00;;;;;24.52;41.71;101806.88;5080757;28;45363;-64
2023/08/21 01:55:38;;;;;;;;;3.00;1.25;;;;;24.48;41.97;101811.56;5080046;28;49110;-64
2023/08/21 01:58:03;;;;;;;;;2.00;2.00;;;;;24.47;41.97;101808.97;5080340;28;45259;-64
2023/08/21 02:00:29;;;;;;;;;3.75;2.00;;;;;24.44;41.76;101818.06;5080361;28;45331;-64
2023/08/21 02:02:54;;;;;;;;;1.00;1.00;;;;;24.42;42.05;101816.44;5078863;28;45513;-64
2023/08/21 02:05:19;;;;;;;;;3.00;1.00;;;;;24.41;41.75;101814.69;5080236;27;45693;-64
2023/08/21 02:07:45;;;;;;;;;2.75;1.00;;;;;24.38;41.95;101807.66;5078828;28;46949;-64
2023/08/21 02:10:11;;;;;;;;;2.00;1.00;;;;;24.37;41.85;101810.44;5080097;28;45304;-64
2023/08/21 02:12:36;;;;;;;;;1.00;1.00;;;;;24.35;42.13;101810.50;5078994;28;45425;-64
2023/08/21 02:15:01;;;;;;;;;0.00;0.00;;;;;24.33;42.18;101807.06;5080193;27;45450;-64
2023/08/21 02:17:27;;;;;;;;;1.00;1.00;;;;;24.30;42.25;101810.78;5078535;28;48686;-64
2023/08/21 02:19:52;;;;;;;;;3.00;1.75;;;;;24.28;42.53;101809.13;5078747;28;45179;-64
2023/08/21 02:22:17;;;;;;;;;2.25;1.00;;;;;24.25;42.02;101812.88;5080153;28;45337;-64
2023/08/21 02:24:43;;;;;;;;;1.00;0.25;;;;;24.23;42.21;101806.69;5080019;28;45417;-64
2023/08/21 02:27:08;;;;;;;;;4.25;1.25;;;;;24.21;42.06;101803.22;5078251;28;45526;-64
2023/08/21 02:29:33;;;;;;;;;1.50;0.75;;;;;24.20;42.10;101800.63;5080062;28;45266;-64
2023/08/21 02:31:59;;;;;;;;;0.00;0.00;;;;;24.17;42.58;101799.84;5078240;28;47063;-64
2023/08/21 02:34:24;;;;;;;;;1.00;1.00;;;;;24.17;42.35;101798.97;5080039;28;45283;-64
2023/08/21 02:36:50;;;;;;;;;1.00;1.00;;;;;24.15;42.76;101792.81;5079438;28;46437;-64
2023/08/21 02:39:15;;;;;;;;;1.00;1.00;;;;;24.13;42.33;101795.59;5078567;28;45290;-64
2023/08/21 02:41:40;;;;;;;;;1.00;1.00;;;;;24.10;42.57;101792.22;5079744;28;45235;-64
2023/08/21 02:44:05;;;;;;;;;2.00;1.00;;;;;24.11;42.56;101796.63;5079480;28;53762;-64
2023/08/21 02:46:33;;;;;;;;;2.25;2.00;;;;;24.09;42.39;101796.72;5079627;28;45227;-64
2023/08/21 02:48:58;;;;;;;;;0.75;0.75;;;;;24.09;42.45;101804.78;5078538;28;45662;-64
2023/08/21 02:51:24;;;;;;;;;2.00;1.25;;;;;24.08;42.66;101805.72;5078454;28;45483;-64
2023/08/21 02:53:49;;;;;;;;;1.50;1.00;;;;;24.06;42.33;101806.75;5079806;28;45323;-64
2023/08/21 02:56:14;;;;;;;;;1.00;1.00;;;;;24.06;42.59;101815.66;5078010;28;48131;-64
2023/08/21 02:58:40;;;;;;;;;1.25;0.50;;;;;24.00;42.67;101799.91;5079830;28;45333;-64
2023/08/21 03:01:05;;;;;;;;;1.00;1.00;;;;;24.01;42.58;101807.88;5079637;28;45249;-64
2023/08/21 03:03:32;;;;;;;;;2.75;1.50;;;;;23.99;42.48;101800.88;5077876;28;45477;-64
2023/08/21 03:05:57;;;;;;;;;1.00;1.00;;;;;23.99;42.40;101798.19;5079356;27;45385;-64
2023/08/21 03:08:23;;;;;;;;;3.00;1.25;;;;;23.96;42.91;101792.97;5079631;28;45376;-64
2023/08/21 03:10:48;;;;;;;;;1.00;1.00;;;;;23.97;42.64;101798.25;5079337;28;45306;-64
2023/08/21 03:13:13;;;;;;;;;1.00;1.00;;;;;23.90;42.72;101786.09;5079617;28;45287;-64
2023/08/21 03:15:39;;;;;;;;;3.25;1.25;;;;;23.94;42.80;101790.38;5079126;27;46264;-64
2023/08/21 03:18:04;;;;;;;;;3.00;0.75;;;;;23.94;43.04;101795.75;5077666;28;50004;-64
2023/08/21 03:20:29;;;;;;;;;1.50;1.50;;;;;23.94;42.85;101798.41;5079458;28;45372;-64
2023/08/21 03:22:55;;;;;;;;;2.00;1.00;;;;;23.93;42.79;101787.78;5079565;28;45222;-64
2023/08/21 03:25:20;;;;;;;;;1.00;1.00;;;;;23.88;43.12;101787.97;5078734;28;45204;-64
2023/08/21 03:27:49;;;;;;;;;1.00;1.00;;;;;23.86;43.31;101789.88;5079418;28;45267;-64
2023/08/21 03:30:14;;;;;;;;;4.00;1.75;;;;;23.87;43.19;101805.03;5077490;28;45430;-64
2023/08/21 03:32:40;;;;;;;;;2.25;1.50;;;;;23.80;42.93;101803.66;5079013;28;45355;-64
2023/08/21 03:35:05;;;;;;;;;1.00;1.00;;;;;23.82;43.14;101807.97;5078709;28;45287;-64
2023/08/21 03:37:30;;;;;;;;;3.75;2.50;;;;;23.79;43.27;101807.28;5079215;28;45436;-64
2023/08/21 03:39:56;;;;;;;;;4.00;1.00;;;;;23.75;43.11;101809.25;5078789;28;46460;-64
2023/08/21 03:42:21;;;;;;;;;3.25;2.50;;;;;23.74;43.56;101820.06;5079223;28;45236;-64
2023/08/21 03:44:49;;;;;;;;;1.50;1.00;;;;;23.74;43.17;101817.38;5078856;27;45362;-64
2023/08/21 03:47:15;;;;;;;;;1.00;1.00;;;;;23.72;43.21;101812.06;5078896;28;45257;-64
2023/08/21 03:49:40;;;;;;;;;3.00;3.00;;;;;23.69;43.56;101810.44;5080356;28;45335;-64
2023/08/21 03:52:05;;;;;;;;;1.00;1.00;;;;;23.67;43.32;101812.34;5082609;28;45217;-64
2023/08/21 03:54:31;;;;;;;;;3.00;2.00;;;;;23.64;43.77;101803.59;5082104;28;53900;-64
2023/08/21 03:56:56;;;;;;;;;2.50;2.00;;;;;23.63;43.34;101801.84;5082128;27;45140;-63
2023/08/21 03:59:23;;;;;;;;;3.00;1.75;;;;;23.64;43.66;101808.94;5081096;28;45417;-63
2023/08/21 04:01:48;;;;;;;;;3.00;1.25;;;;;23.63;43.45;101805.38;5082202;28;45442;-63
2023/08/21 04:04:14;;;;;;;;;2.00;2.00;;;;;23.61;43.32;101796.56;5081566;28;53792;-63
2023/08/21 04:06:39;;;;;;;;;4.00;2.00;;;;;23.61;43.23;101801.03;5082176;27;45395;-63
2023/08/21 04:09:06;;;;;;;;;2.00;1.00;;;;;23.57;43.45;101803.06;5082167;28;45367;-63
2023/08/21 04:11:32;;;;;;;;;1.75;1.00;;;;;23.57;43.58;101803.06;5080630;28;46179;-63
2023/08/21 04:13:58;;;;;;;;;2.25;2.25;;;;;23.54;43.43;101804.03;5080382;28;46486;-63
2023/08/21 04:16:24;;;;;;;;;1.00;1.00;;;;;23.54;43.49;101814.78;5081796;28;45234;-63
2023/08/21 04:18:49;;;;;;;;;2.75;2.00;;;;;23.52;43.71;101810.44;5081966;28;45497;-63
2023/08/21 04:21:15;;;;;;;;;3.00;1.75;;;;;23.55;43.53;101815.66;5082398;28;45217;-64
2023/08/21 04:23:40;;;;;;;;;4.50;3.00;;;;;23.53;43.36;101814.88;5080254;28;46115;-63
2023/08/21 04:26:06;;;;;;;;;1.25;1.25;;;;;23.52;43.78;101815.81;5081838;27;45239;-63
2023/08/21 04:28:32;;;;;;;;;5.25;4.00;;;;;23.49;43.50;101826.72;5080590;28;45219;-63
2023/08/21 04:30:57;;;;;;;;;2.00;2.00;;;;;23.42;43.63;101818.13;5081981;28;45688;-64
2023/08/21 04:33:25;;;;;;;;;3.00;2.50;;;;;23.46;43.89;101830.41;5081328;28;46261;-63
2023/08/21 04:35:50;;;;;;;;;2.25;2.00;;;;;23.45;43.66;101823.31;5080571;27;45350;-64
2023/08/21 04:38:15;;;;;;;;;2.50;1.25;;;;;23.43;43.68;101824.34;5081898;28;45527;-64
2023/08/21 04:40:41;;;;;;;;;4.75;2.75;;;;;23.40;43.60;101820.00;5081780;28;45386;-64
2023/08/21 04:43:06;;;;;;;;;4.50;3.00;;;;;23.40;43.72;101829.88;5081524;28;45256;-63
2023/08/21 04:45:31;;;;;;;;;6.75;5.25;;;;;23.43;44.02;101832.38;5081429;28;48173;-64
2023/08/21 04:47:56;;;;;;;;;7.00;4.00;;;;;23.38;43.80;101835.28;5081128;28;49470;-64
2023/08/21 04:50:22;;;;;;;;;6.50;5.00;;;;;23.40;43.92;101848.66;5081665;28;45229;-64
2023/08/21 04:52:48;;;;;;;;;8.50;7.00;;;;;23.37;43.92;101833.59;5079860;28;52545;-65
2023/08/21 04:55:14;;;;;;;;;6.50;5.00;;;;;23.36;43.78;101837.22;5079872;28;45243;-64
2023/08/21 04:57:39;;;;;;;;;9.00;7.00;;;;;23.34;43.88;101829.22;5081396;28;45318;-64
2023/08/21 05:00:05;;;;;;;;;9.50;6.00;;;;;23.34;43.98;101839.09;5080105;28;45875;-64
2023/08/21 05:02:30;;;;;;;;;7.50;6.00;;;;;23.32;43.85;101839.16;5080860;28;46095;-64
2023/08/21 05:04:56;;;;;;;;;8.25;8.25;;;;;23.30;44.14;101837.50;5081238;28;45289;-64
2023/08/21 05:07:21;;;;;;;;;7.50;5.75;;;;;23.30;43.92;101846.41;5081221;28;45208;-64
2023/08/21 05:09:46;;;;;;;;;10.25;7.75;;;;;23.28;43.83;101840.28;5081147;28;46334;-64
2023/08/21 05:12:12;;;;;;;;;7.00;7.00;;;;;23.25;44.12;101835.06;5081058;28;45568;-64
2023/08/21 05:14:37;;;;;;;;;9.00;9.00;;;;;23.25;44.07;101844.94;5080940;28;47564;-64
2023/08/21 05:17:03;;;;;;;;;5.50;5.50;;;;;23.26;44.10;101843.94;5080926;27;45394;-64
2023/08/21 05:19:28;;;;;;;;;6.75;5.00;;;;;23.24;44.05;101849.41;5081189;28;45421;-64
2023/08/21 05:21:54;;;;;;;;;7.00;5.00;;;;;23.23;44.19;101861.06;5080826;28;46074;-64
2023/08/21 05:24:19;;;;;;;;;7.75;6.00;;;;;23.23;44.48;101853.03;5080761;28;45164;-63
2023/08/21 05:26:44;;;;;;;;;4.50;4.50;;;;;23.20;44.14;101853.19;5080784;28;45299;-63
2023/08/21 05:29:10;;;;;;;;;3.00;3.00;;;;;23.19;44.28;101856.81;5079341;28;50482;-64
2023/08/21 05:31:35;;;;;;;;;6.50;5.25;;;;;23.21;43.91;101860.28;5080511;28;46024;-64
2023/08/21 05:34:00;;;;;;;;;8.50;5.50;;;;;23.18;44.27;101847.03;5081044;28;45236;-63
2023/08/21 05:36:25;;;;;;;;;5.00;3.00;;;;;23.16;44.31;101852.47;5080866;27;45394;-64
2023/08/21 05:38:51;;;;;;;;;10.00;8.50;;;;;23.14;44.39;101861.50;5079350;28;45496;-64
2023/08/21 05:41:17;;;;;;;;;5.00;5.00;;;;;23.15;44.19;101860.56;5079082;28;48314;-63
2023/08/21 05:43:42;;;;;;;;;6.75;6.00;;;;;23.14;44.40;101869.53;5079332;28;45341;-63
2023/08/21 05:46:08;;;;;;;;;4.50;4.00;;;;;23.12;44.38;101871.44;5080675;28;45178;-63
2023/08/21 05:48:34;;;;;;;;;6.00;4.00;;;;;23.11;44.35;101861.66;5080493;28;45319;-63
2023/08/21 05:50:59;;;;;;;;;3.25;3.00;;;;;23.11;44.42;101867.03;5080368;28;45235;-63
2023/08/21 05:53:25;;;;;;;;;3.00;1.50;;;;;23.05;44.66;101871.72;5080711;28;45209;-63
2023/08/21 05:55:50;;;;;;;;;6.25;4.75;;;;;23.06;44.61;101853.84;5079088;28;45243;-63
2023/08/21 05:58:15;;;;;;;;;5.25;5.00;;;;;23.04;44.47;101867.34;5080556;28;45289;-63
2023/08/21 06:00:41;;;;;;;;;2.50;2.50;;;;;23.05;44.74;101877.09;5080153;28;45217;-63
2023/08/21 06:03:06;;;;;;;;;3.75;2.00;;;;;23.03;44.49;101873.63;5080253;28;45311;-63
2023/08/21 06:05:31;;;;;;;;;5.50;3.50;;;;;23.05;44.35;101876.22;5080474;27;45220;-63
2023/08/21 06:07:57;;;;;;;;;3.25;1.75;;;;;23.04;44.31;101875.38;5079951;28;57778;-63
2023/08/21 06:10:22;;;;;;;;;4.75;3.00;;;;;23.03;44.57;101872.75;5080004;28;45347;-63
2023/08/21 06:12:48;;;;;;;;;5.50;3.00;;;;;23.05;44.78;101881.59;5079722;27;45372;-63
2023/08/21 06:15:13;;;;;;;;;4.50;4.00;;;;;23.05;44.74;101887.81;5080236;28;45302;-63
2023/08/21 06:17:40;;;;;;;;;2.00;1.25;;;;;23.02;44.59;101877.25;5079979;28;45584;-64
2023/08/21 06:20:08;;;;;;;;;2.75;2.75;;;;;23.03;44.80;101880.78;5080138;28;45418;-64
2023/08/21 06:22:33;;;;;;;;;1.50;1.25;;;;;23.02;44.58;101887.13;5079060;28;45330;-63
2023/08/21 06:24:59;;;;;;;;;1.00;1.00;;;;;23.03;44.54;101884.34;5079589;27;45473;-63
2023/08/21 06:27:24;;;;;;;;;2.25;1.75;;;;;23.02;44.87;101879.94;5080163;28;45437;-64
2023/08/21 06:29:49;;;;;;;;;7.25;4.50;;;;;23.02;44.83;101876.41;5080038;28;45196;-64
2023/08/21 06:32:15;;;;;;;;;3.25;2.75;;;;;23.04;44.57;101878.06;5079677;28;45958;-64
2023/08/21 06:34:40;;;;;;;;;4.25;2.75;;;;;23.04;44.74;101886.09;5080072;28;45502;-63
2023/08/21 06:37:05;;;;;;;;;15.25;9.75;;;;;23.03;45.01;101880.78;5079771;27;45532;-63
2023/08/21 06:39:31;;;;;;;;;2.25;1.00;;;;;23.03;44.69;101878.09;5079804;28;45208;-63
2023/08/21 06:41:56;;;;;;;;;21.25;17.25;;;;;23.04;45.22;101890.56;5079708;28;45247;-64
2023/08/21 06:44:22;;;;;;;;;4.00;4.00;;;;;23.01;44.94;101878.19;5079987;28;45188;-64
2023/08/21 06:46:47;;;;;;;;;3.75;1.75;;;;;23.10;44.89;101881.38;5079528;27;45343;-64
2023/08/21 06:49:12;;;;;;;;;1.75;1.75;;;;;23.11;45.02;101886.66;5079689;28;45550;-64
2023/08/21 06:51:38;;;;;;;;;3.00;1.00;;;;;23.13;44.78;101886.56;5079694;28;45444;-64
2023/08/21 06:54:03;;;;;;;;;5.50;2.50;;;;;23.14;44.92;101888.31;5079903;28;45527;-64
2023/08/21 06:56:28;;;;;;;;;1.00;1.00;;;;;23.14;45.08;101888.31;5078023;28;45386;-64
2023/08/21 06:58:55;;;;;;;;;1.00;1.00;;;;;23.15;44.43;101895.41;5078358;28;47024;-64
2023/08/21 07:01:20;;;;;;;;;1.00;1.00;;;;;23.18;44.91;101895.28;5095023;27;45720;-64
2023/08/21 07:03:46;;;;;;;;;3.75;2.00;;;;;23.19;44.82;101900.59;5078029;28;45491;-64
2023/08/21 07:06:11;;;;;;;;;0.00;0.00;;;;;23.21;44.83;101898.69;5078306;28;45419;-64
2023/08/21 07:08:37;;;;;;;;;2.00;2.00;;;;;23.21;44.88;101892.47;5079645;28;45438;-64
2023/08/21 07:11:07;;;;;;;;;3.00;1.00;;;;;23.22;44.75;101896.88;5079064;28;45334;-64
2023/08/21 07:13:33;;;;;;;;;1.00;1.00;;;;;23.26;44.70;101887.75;5079676;28;45468;-64
2023/08/21 07:15:58;;;;;;;;;1.00;1.00;;;;;23.28;44.67;101903.75;5079144;27;45330;-64
2023/08/21 07:18:24;;;;;;;;;2.75;2.75;;;;;23.31;44.83;101895.56;5077790;28;48042;-65
2023/08/21 07:20:52;;;;;;;;;2.00;1.00;;;;;23.33;44.75;101891.88;5079265;28;45248;-64
2023/08/21 07:23:17;;;;;;;;;2.75;2.25;;;;;23.35;44.74;101895.31;5078716;28;45265;-64
2023/08/21 07:25:42;;;;;;;;;1.00;1.00;;;;;23.39;44.43;101903.22;5081172;27;45185;-65
2023/08/21 07:28:09;;;;;;;;;5.00;2.00;;;;;23.35;44.95;101889.94;5081400;28;45626;-64
2023/08/21 07:30:37;;;;;;;;;2.00;1.00;;;;;23.43;44.69;101902.13;5082774;28;45257;-64
2023/08/21 07:33:02;;;;;;;;;3.75;0.00;;;;;23.45;44.83;101902.91;5081298;28;45319;-64
2023/08/21 07:35:27;;;;;;;;;1.00;1.00;;;;;23.43;44.65;101894.06;5081075;27;45795;-64
2023/08/21 07:37:53;;;;;;;;;1.00;0.00;;;;;23.47;44.67;101899.22;5082271;27;51633;-64
2023/08/21 07:40:18;;;;;;;;;2.50;1.00;;;;;23.49;44.58;101896.44;5082597;28;45322;-64
2023/08/21 07:42:43;;;;;;;;;1.00;1.00;;;;;23.54;44.88;101899.75;5082736;28;45299;-64
2023/08/21 07:45:10;;;;;;;;;3.00;1.00;;;;;23.55;44.25;101893.44;5081050;27;45424;-64
2023/08/21 07:47:35;;;;;;;;;2.00;1.25;;;;;23.56;44.50;101897.88;5082402;28;46202;-64
2023/08/21 07:50:01;;;;;;;;;1.00;1.00;;;;;23.61;44.59;101906.56;5082270;28;45333;-64
2023/08/21 07:52:26;;;;;;;;;1.00;1.00;;;;;23.66;44.71;101903.63;5082853;28;45274;-64
2023/08/21 07:54:54;;;;;;;;;4.00;2.75;;;;;23.66;44.39;101896.47;5082296;27;45579;-64
2023/08/21 07:57:20;;;;;;;;;4.00;1.25;;;;;23.70;44.63;101895.34;5082505;28;45378;-64
2023/08/21 07:59:45;;;;;;;;;0.25;0.25;;;;;23.73;44.49;101890.78;5082266;28;45235;-64
2023/08/21 08:02:12;;;;;;;;;2.00;2.00;;;;;23.78;44.55;101899.44;5082293;28;45340;-64
2023/08/21 08:04:38;;;;;;;;;1.00;1.00;;;;;23.81;44.21;101901.97;5082222;27;45535;-64
2023/08/21 08:07:03;;;;;;;;;1.25;1.25;;;;;23.84;44.70;101901.81;5082074;28;46547;-64
2023/08/21 08:09:29;;;;;;;;;2.00;2.00;;;;;23.86;44.32;101900.78;5080862;28;45302;-64
2023/08/21 08:11:54;;;;;;;;;1.00;1.00;;;;;23.90;44.65;101906.88;5080740;28;45425;-64
2023/08/21 08:14:19;;;;;;;;;4.25;3.00;;;;;23.96;44.14;101908.38;5081983;28;45325;-64
2023/08/21 08:16:44;;;;;;;;;2.25;1.50;;;;;23.96;44.47;101906.59;5080282;28;47055;-64
2023/08/21 08:19:10;;;;;;;;;1.75;1.00;;;;;24.01;44.55;101906.31;5082002;28;45291;-64
2023/08/21 08:21:36;;;;;;;;;2.00;1.00;;;;;24.04;44.28;101907.97;5082268;28;45442;-64
2023/08/21 08:24:01;;;;;;;;;1.50;1.50;;;;;24.08;44.28;101906.88;5081702;28;45253;-64
2023/08/21 08:26:27;;;;;;;;;2.75;1.00;;;;;24.13;44.07;101905.69;5081586;27;46400;-64
2023/08/21 08:28:52;;;;;;;;;1.00;1.00;;;;;24.12;44.50;101895.03;5081797;28;45253;-64
2023/08/21 08:31:18;;;;;;;;;1.00;1.00;;;;;24.21;44.52;101905.25;5081569;28;46121;-65
2023/08/21 08:33:44;;;;;;;;;1.50;0.50;;;;;24.25;44.21;101892.53;5081424;28;45252;-64
2023/08/21 08:36:10;;;;;;;;;2.00;1.00;;;;;24.29;44.05;101902.19;5081473;27;45364;-64
2023/08/21 08:38:36;;;;;;;;;1.00;1.00;;;;;24.36;44.45;101906.25;5081728;28;45249;-64
2023/08/21 08:41:04;;;;;;;;;2.00;2.00;;;;;24.42;44.41;101905.06;5081768;28;45461;-64
2023/08/21 08:43:30;;;;;;;;;3.25;1.50;;;;;24.46;44.18;101904.78;5081589;28;45384;-64
2023/08/21 08:45:58;;;;;;;;;2.75;0.75;;;;;24.50;44.35;101903.69;5081357;27;45431;-64
2023/08/21 08:48:24;;;;;;;;;1.50;1.00;;;;;24.50;43.92;101892.06;5081317;28;45342;-64
2023/08/21 08:50:50;;;;;;;;;2.75;1.75;;;;;24.60;44.51;101895.13;5081641;28;45518;-64
2023/08/21 08:53:17;;;;;;;;;1.00;1.00;;;;;24.65;44.47;101898.44;5081514;28;45416;-64
2023/08/21 08:55:43;;;;;;;;;2.00;2.00;;;;;24.69;44.44;101894.66;5081062;27;46512;-64
2023/08/21 08:58:08;;;;;;;;;2.75;1.00;;;;;24.75;44.32;101890.75;5079939;28;45366;-63
2023/08/21 09:00:34;;;;;;;;;1.75;1.00;;;;;24.78;44.42;101886.06;5081357;28;45552;-64
2023/08/21 09:02:59;;;;;;;;;3.00;1.00;;;;;24.84;44.38;101887.53;5081044;28;45275;-64
2023/08/21 09:05:24;;;;;;;;;1.75;1.00;;;;;24.89;44.00;101890.84;5081074;27;45340;-64
2023/08/21 09:08:08;;;;;;;;;1.00;1.00;;;;;24.98;44.25;101894.81;5079840;28;46536;-64
2023/08/21 09:10:35;;;;;;;;;1.00;1.00;;;;;25.00;44.50;101890.22;5081076;28;45271;-64
2023/08/21 09:13:01;;;;;;;;;2.00;1.75;;;;;25.07;44.13;101890.72;5081250;28;45482;-64
2023/08/21 09:15:30;;;;;;;;;5.75;5.00;;;;;25.14;44.09;101884.94;5079357;28;47246;-64
2023/08/21 09:17:56;;;;;;;;;1.00;0.00;;;;;25.20;43.87;101885.53;5080707;28;50204;-64
2023/08/21 09:20:21;;;;;;;;;1.00;1.00;;;;;25.25;44.48;101886.13;5081082;28;45255;-64
2023/08/21 09:22:53;;;;;;;;;2.00;1.00;;;;;25.31;44.36;101881.25;5079787;28;45430;-64
2023/08/21 09:25:19;;;;;;;;;2.50;1.75;;;;;25.39;43.77;101883.50;5080630;28;46266;-63
2023/08/21 09:27:44;;;;;;;;;0.25;0.25;;;;;25.43;44.13;101879.69;5081045;27;45223;-64
2023/08/21 09:30:15;;;;;;;;;2.00;2.00;;;;;25.50;44.17;101872.13;5081028;27;45223;-64
2023/08/21 09:33:00;;;;;;;;;3.00;1.00;;;;;25.61;44.12;101875.03;5080846;28;45428;-64
2023/08/21 09:35:27;;;;;;;;;1.50;1.00;;;;;25.68;43.70;101872.81;5077945;27;47468;-64
2023/08/21 09:37:53;;;;;;;;;3.00;3.00;;;;;25.79;44.23;101866.78;5080807;28;45357;-64
2023/08/21 09:40:19;;;;;;;;;3.00;1.00;;;;;25.85;44.12;101869.13;5079182;28;45379;-64
2023/08/21 09:42:44;;;;;;;;;0.67;0.67;;;;;25.94;43.76;101868.53;5079303;28;45885;-64
2023/08/21 09:45:09;;;;;;;;;2.00;2.00;;;;;26.05;43.77;101869.69;5078849;27;48344;-64
2023/08/21 09:47:38;;;;;;;;;2.00;2.00;;;;;26.14;44.02;101863.78;5079702;28;45256;-64
2023/08/21 09:50:04;;;;;;;;;0.25;0.25;;;;;26.24;43.52;101864.94;5080697;28;45256;-64
2023/08/21 09:52:30;;;;;;;;;2.00;2.00;;;;;26.41;43.53;101869.25;5080467;28;45337;-64
2023/08/21 09:54:56;;;;;;;;;4.25;1.25;;;;;26.54;43.91;101865.75;5080070;27;45264;-64
2023/08/21 09:57:23;;;;;;;;;1.50;1.50;;;;;26.72;43.83;101874.50;5080316;28;45414;-64
2023/08/21 09:59:54;;;;;;;;;2.00;2.00;;;;;26.91;43.62;101877.75;5079207;28;45195;-64
2023/08/21 10:02:24;;;;;;;;;3.75;2.00;;;;;27.13;44.38;101868.25;5080039;28;45285;-63
2023/08/21 10:04:51;;;;;;;;;1.00;1.00;;;;;27.39;43.75;101868.31;5080334;28;47427;-63
2023/08/21 10:07:22;;;;;;;;;2.00;2.00;;;;;27.68;43.93;101862.78;5078803;28;45185;-63
2023/08/21 10:09:47;;;;;;;;;1.25;1.25;;;;;28.00;43.85;101865.03;5078869;28;45449;-64
2023/08/21 10:12:16;;;;;;;;;1.50;1.50;;;;;28.26;44.00;101847.00;5078591;28;45577;-64
2023/08/21 10:14:42;;;;;;;;;5.50;2.75;;;;;28.70;43.84;101861.88;5080402;28;45248;-63
2023/08/21 10:17:08;;;;;;;;;3.00;3.00;;;;;29.08;43.67;101865.38;5079836;28;45615;-63
2023/08/21 10:19:35;;;;;;;;;3.50;2.00;;;;;29.46;43.81;101858.91;5079006;28;45427;-63
2023/08/21 10:22:03;;;;;;;;;3.00;1.00;;;;;29.87;43.46;101859.34;5080126;28;45331;-63
2023/08/21 10:24:36;;;;;;;;;1.00;1.00;;;;;30.31;43.06;101862.22;5079839;28;45437;-63
2023/08/21 10:27:02;;;;;;;;;2.00;2.00;;;;;30.73;42.97;101851.59;5079624;27;45384;-63
2023/08/21 10:29:34;;;;;;;;;2.25;2.00;;;;;31.14;43.22;101859.16;5080151;28;45223;-62
2023/08/21 10:32:04;;;;;;;;;4.25;3.25;;;;;31.54;42.90;101836.72;5079549;28;45412;-64
2023/08/21 10:34:40;;;;;;;;;2.00;2.00;;;;;32.00;42.77;101842.69;5078488;27;45240;-63
2023/08/21 10:37:09;;;;;;;;;3.00;1.75;;;;;32.43;42.19;101847.06;5078346;28;45189;-62
2023/08/21 10:39:37;;;;;;;;;0.00;0.00;;;;;32.80;42.27;101835.53;5079944;28;45264;-63
2023/08/21 10:42:13;;;;;;;;;5.75;0.25;;;;;33.26;41.41;101843.13;5079715;28;45331;-63
2023/08/21 10:44:52;;;;;;;;;1.00;1.00;;;;;33.66;41.51;101837.50;5079630;28;46480;-63
2023/08/21 10:47:27;;;;;;;;;0.75;0.25;;;;;34.11;41.48;101835.91;5079528;28;45438;-63
2023/08/21 10:49:57;;;;;;;;;2.75;2.75;;;;;34.48;40.96;101842.38;5078530;28;45474;-63
2023/08/21 10:52:30;;;;;;;;;0.00;0.00;;;;;34.91;40.99;101846.25;5078347;28;45540;-63
2023/08/21 10:54:58;;;;;;;;;1.00;1.00;;;;;35.30;40.41;101840.44;5079212;27;45568;-64
2023/08/21 10:57:26;;;;;;;;;1.25;1.25;;;;;35.68;39.93;101833.91;5080316;28;45308;-65
2023/08/21 11:00:05;;;;;;;;;0.50;0.50;;;;;36.03;39.93;101832.94;5083561;28;45248;-63
2023/08/21 11:02:32;;;;;;;;;1.75;0.00;;;;;36.39;39.71;101827.28;5081458;28;45334;-63
2023/08/21 11:04:58;;;;;;;;;1.00;1.00;;;;;36.75;39.39;101827.00;5081698;27;47340;-64
2023/08/21 11:07:24;;;;;;;;;0.25;0.25;;;;;37.06;39.01;101831.84;5083062;28;45338;-63
2023/08/21 11:09:50;;;;;;;;;1.25;1.25;;;;;37.39;38.36;101834.59;5082911;28;45238;-64
2023/08/21 11:12:18;;;;;;;;;1.00;1.00;;;;;37.72;37.96;101831.81;5082945;28;45222;-63
2023/08/21 11:14:44;;;;;;;;;0.50;0.50;;;;;38.04;38.09;101829.16;5081652;28;48363;-63
2023/08/21 11:17:10;;;;;;;;;1.00;1.00;;;;;38.33;37.04;101824.94;5082476;27;45383;-64
2023/08/21 11:19:36;;;;;;;;;0.00;0.00;;;;;38.69;36.99;101829.81;5083041;28;45312;-64